Airfield :
LOGIN :

Register | Disclaimer

   EN    FR    IT 

 










Legend :    VFR   Marginal VFR   IFR   Intensive IFR   Very Intensive IFR
Visi :
Ceiling :
>= 8 km
>= 3000ft
5 to 8 km
1000 to 3000 ft
1500m to 5 km
500 to 1000 ft
800 to 1500m
200 to 500 ft
< 800m
< 200 ft
Symbols :   Thunderstorms  Fog  Heavy snow  Heavy precipitations  Wind > 20 kt
SIGMETs :     Misc.  Thunderstorms  Icing  Turbulence  Mountain Waves  Volcanic Ashes







- Airport Elevation : 464 ft
- IATA code : EVX
- Download approach charts


LFOE - Evreux

CURRENT METAR :
  • 222030Z AUTO 20008KT CAVOK 15/14 Q1010

EXPIRED METARs :
  • 222000Z AUTO 19008KT CAVOK 16/15 Q1010
  • 221930Z AUTO 18008KT 9999 FEW009 SCT042 16/15 Q1009
  • 221900Z AUTO 16009KT 9999 FEW043 16/15 Q1009
  • 221830Z AUTO 16011KT CAVOK 16/15 Q1009
  • 221800Z AUTO 16011KT CAVOK 17/15 Q1009

TAF TAF LFOE
Valid from the 22 at 05:00 until the 23 at 03:00 UTC


220520Z 2205/2303 16010KT CAVOK
BECMG 2207/2209 19010G20KT 6000 RA SCT010 BKN030
PROB40
TEMPO 2206/2209 4000 -SHRA SCT008 BKN040TCU
TEMPO 2209/2213 25015G25KT 3000 SHRA SCT010 BKN020CB
PROB40
TEMPO 2210/2213 VRB20G30KT 2000 TSRA BKN008 BKN018CB
BECMG 2213/2214 9999 NSW SCT010 SCT030
TEMPO 2215/2303 VRB15G25KT 4000 -SHRA SCT008 BKN020TCU
PROB30
TEMPO 2215/2221 VRB20G30KT 2000 TSRA BKN020CB
No reported NOTAMs for that airfield.



MET'MAP, your aeronautical weather chart ! - Copyright ORBIFLY December 2007 - Disclaimer

ORBIFLY MET'MAP TEAM :

Programming & Development : Alexandra Zaïnal
Concept & Development : Baudouin d'Aumeries
Co-Development & Prog : Marc-Olivier Méhu
Technical & hardware support : Manuel Goepfert

Contact : metmap@orbifly.com




SOURCES & CREDITS :

   NOAA